sensor_id;sensor_type;location;lat;lon;timestamp;P1;durP1;ratioP1;P2;durP2;ratioP2
466;SDS011;63;48.772;9.146;2023-08-17T10:50:24;16.27;;;12.47;;
466;SDS011;63;48.772;9.146;2023-08-17T10:52:53;19.17;;;14.30;;
466;SDS011;63;48.772;9.146;2023-08-17T10:56:14;23.20;;;12.33;;
466;SDS011;63;48.772;9.146;2023-08-17T10:58:42;18.80;;;12.57;;
466;SDS011;63;48.772;9.146;2023-08-17T11:01:09;21.47;;;14.03;;
466;SDS011;63;48.772;9.146;2023-08-17T11:03:36;22.20;;;12.27;;
466;SDS011;63;48.772;9.146;2023-08-17T11:06:13;18.20;;;12.97;;
466;SDS011;63;48.772;9.146;2023-08-17T11:10:40;22.03;;;12.50;;
466;SDS011;63;48.772;9.146;2023-08-17T11:13:07;17.73;;;12.23;;
466;SDS011;63;48.772;9.146;2023-08-17T11:18:07;19.73;;;13.23;;
466;SDS011;63;48.772;9.146;2023-08-17T11:20:33;15.67;;;12.00;;
466;SDS011;63;48.772;9.146;2023-08-17T11:22:59;17.33;;;12.30;;
466;SDS011;63;48.772;9.146;2023-08-17T11:25:26;18.80;;;13.00;;
466;SDS011;72290;48.808;9.222;2023-08-17T11:38:31;16.27;;;11.03;;
466;SDS011;72290;48.808;9.222;2023-08-17T11:41:00;18.00;;;12.13;;
466;SDS011;72290;48.808;9.222;2023-08-17T11:43:29;17.37;;;12.07;;
466;SDS011;72290;48.808;9.222;2023-08-17T11:45:55;16.20;;;12.20;;
466;SDS011;72290;48.808;9.222;2023-08-17T11:48:23;13.53;;;11.43;;
466;SDS011;72290;48.808;9.222;2023-08-17T11:50:49;14.70;;;10.60;;
466;SDS011;72290;48.808;9.222;2023-08-17T11:53:15;18.00;;;11.60;;
466;SDS011;72290;48.808;9.222;2023-08-17T11:55:41;16.30;;;10.02;;
466;SDS011;72290;48.808;9.222;2023-08-17T11:58:07;15.25;;;10.40;;
466;SDS011;72290;48.808;9.222;2023-08-17T12:00:37;14.07;;;11.43;;
466;SDS011;72290;48.808;9.222;2023-08-17T12:03:05;19.50;;;11.37;;
466;SDS011;72290;48.808;9.222;2023-08-17T12:05:31;14.80;;;12.20;;
466;SDS011;72290;48.808;9.222;2023-08-17T12:07:58;14.00;;;11.10;;
466;SDS011;72290;48.808;9.222;2023-08-17T12:10:31;19.67;;;11.00;;
466;SDS011;72290;48.808;9.222;2023-08-17T12:12:57;16.67;;;11.83;;
466;SDS011;72290;48.808;9.222;2023-08-17T12:15:35;16.27;;;12.70;;
466;SDS011;72290;48.808;9.222;2023-08-17T12:18:02;21.97;;;12.53;;
466;SDS011;72290;48.808;9.222;2023-08-17T12:20:28;18.33;;;14.57;;
466;SDS011;72290;48.808;9.222;2023-08-17T12:22:56;21.63;;;13.57;;
466;SDS011;72290;48.808;9.222;2023-08-17T12:25:23;23.83;;;13.20;;
466;SDS011;72290;48.808;9.222;2023-08-17T12:27:49;17.90;;;12.50;;
466;SDS011;72290;48.808;9.222;2023-08-17T12:30:28;16.97;;;12.90;;
466;SDS011;72290;48.808;9.222;2023-08-17T12:32:56;20.23;;;12.90;;
466;SDS011;72290;48.808;9.222;2023-08-17T12:35:22;26.63;;;13.73;;
466;SDS011;72290;48.808;9.222;2023-08-17T12:37:49;22.77;;;13.90;;
466;SDS011;72290;48.808;9.222;2023-08-17T12:40:15;19.00;;;12.70;;
466;SDS011;72290;48.808;9.222;2023-08-17T12:42:41;19.73;;;14.10;;
466;SDS011;72290;48.808;9.222;2023-08-17T12:45:07;22.53;;;12.30;;
466;SDS011;72290;48.808;9.222;2023-08-17T12:47:33;15.20;;;12.27;;
466;SDS011;72290;48.808;9.222;2023-08-17T12:49:59;17.20;;;12.67;;
466;SDS011;72290;48.808;9.222;2023-08-17T12:52:25;18.33;;;11.90;;
466;SDS011;72290;48.808;9.222;2023-08-17T12:54:51;14.87;;;11.47;;
466;SDS011;72290;48.808;9.222;2023-08-17T12:57:17;20.30;;;9.87;;
466;SDS011;72290;48.808;9.222;2023-08-17T12:59:43;17.37;;;11.17;;
466;SDS011;72290;48.808;9.222;2023-08-17T13:02:09;16.83;;;9.60;;
466;SDS011;72290;48.808;9.222;2023-08-17T13:04:35;12.97;;;9.67;;
466;SDS011;72290;48.808;9.222;2023-08-17T13:07:01;13.93;;;9.40;;
466;SDS011;72290;48.808;9.222;2023-08-17T13:09:27;14.80;;;9.83;;
466;SDS011;72290;48.808;9.222;2023-08-17T13:11:53;14.17;;;9.37;;
466;SDS011;72290;48.808;9.222;2023-08-17T13:14:19;14.50;;;8.27;;
466;SDS011;72290;48.808;9.222;2023-08-17T13:16:47;15.80;;;9.63;;
466;SDS011;72290;48.808;9.222;2023-08-17T13:19:13;15.20;;;8.30;;
466;SDS011;72290;48.808;9.222;2023-08-17T13:21:39;12.40;;;9.03;;
466;SDS011;72290;48.808;9.222;2023-08-17T13:24:05;11.90;;;8.37;;
466;SDS011;72290;48.808;9.222;2023-08-17T13:26:31;14.13;;;9.30;;
466;SDS011;72290;48.808;9.222;2023-08-17T13:28:57;15.53;;;9.43;;
466;SDS011;72290;48.808;9.222;2023-08-17T13:31:23;12.63;;;8.73;;
466;SDS011;72290;48.808;9.222;2023-08-17T13:33:49;14.60;;;8.63;;
466;SDS011;72290;48.808;9.222;2023-08-17T13:36:15;13.50;;;9.30;;
466;SDS011;72290;48.808;9.222;2023-08-17T13:38:41;11.70;;;8.60;;
466;SDS011;72290;48.808;9.222;2023-08-17T13:41:07;14.30;;;9.00;;
466;SDS011;72290;48.808;9.222;2023-08-17T13:43:33;17.00;;;9.80;;
466;SDS011;72290;48.808;9.222;2023-08-17T13:45:59;15.30;;;9.67;;
466;SDS011;72290;48.808;9.222;2023-08-17T13:48:25;11.73;;;9.23;;
466;SDS011;72290;48.808;9.222;2023-08-17T13:50:51;15.80;;;10.13;;
466;SDS011;72290;48.808;9.222;2023-08-17T13:53:17;12.60;;;9.20;;
466;SDS011;72290;48.808;9.222;2023-08-17T13:55:43;15.50;;;10.17;;
466;SDS011;72290;48.808;9.222;2023-08-17T13:58:09;14.83;;;10.00;;
466;SDS011;72290;48.808;9.222;2023-08-17T14:00:36;15.67;;;9.77;;
466;SDS011;72290;48.808;9.222;2023-08-17T14:03:02;16.13;;;10.87;;
466;SDS011;72290;48.808;9.222;2023-08-17T14:05:28;17.33;;;12.20;;
466;SDS011;72290;48.808;9.222;2023-08-17T14:07:54;12.70;;;9.33;;
466;SDS011;72290;48.808;9.222;2023-08-17T14:10:20;12.80;;;9.50;;
466;SDS011;72290;48.808;9.222;2023-08-17T14:12:46;14.37;;;10.10;;
466;SDS011;72290;48.808;9.222;2023-08-17T14:15:12;14.73;;;10.90;;
466;SDS011;72290;48.808;9.222;2023-08-17T14:17:39;17.30;;;10.77;;
466;SDS011;72290;48.808;9.222;2023-08-17T14:20:05;15.03;;;11.53;;
466;SDS011;72290;48.808;9.222;2023-08-17T14:22:31;16.17;;;10.40;;
466;SDS011;72290;48.808;9.222;2023-08-17T14:24:57;19.63;;;10.60;;
466;SDS011;72290;48.808;9.222;2023-08-17T14:27:24;14.10;;;11.20;;
466;SDS011;72290;48.808;9.222;2023-08-17T14:29:50;18.30;;;11.10;;
466;SDS011;72290;48.808;9.222;2023-08-17T14:32:16;14.53;;;10.07;;
466;SDS011;72290;48.808;9.222;2023-08-17T14:34:42;16.67;;;10.37;;
466;SDS011;72290;48.808;9.222;2023-08-17T14:37:08;15.07;;;10.07;;
466;SDS011;72290;48.808;9.222;2023-08-17T14:39:34;20.27;;;12.57;;
466;SDS011;72290;48.808;9.222;2023-08-17T14:42:00;19.53;;;12.10;;
466;SDS011;72290;48.808;9.222;2023-08-17T14:44:26;17.33;;;11.87;;
466;SDS011;72290;48.808;9.222;2023-08-17T14:46:52;18.33;;;11.70;;
466;SDS011;72290;48.808;9.222;2023-08-17T14:49:18;18.60;;;11.90;;
466;SDS011;72290;48.808;9.222;2023-08-17T14:51:44;22.83;;;12.77;;
466;SDS011;72290;48.808;9.222;2023-08-17T14:54:10;21.03;;;11.63;;
466;SDS011;72290;48.808;9.222;2023-08-17T14:56:36;17.00;;;10.30;;
466;SDS011;72290;48.808;9.222;2023-08-17T14:59:03;14.30;;;11.70;;
466;SDS011;72290;48.808;9.222;2023-08-17T15:01:29;14.67;;;10.77;;
466;SDS011;72290;48.808;9.222;2023-08-17T15:03:55;17.83;;;12.23;;
466;SDS011;72290;48.808;9.222;2023-08-17T15:06:21;13.97;;;9.93;;
466;SDS011;72290;48.808;9.222;2023-08-17T15:08:49;16.87;;;10.37;;
466;SDS011;72290;48.808;9.222;2023-08-17T15:11:15;15.97;;;10.40;;
466;SDS011;72290;48.808;9.222;2023-08-17T15:13:41;18.60;;;10.07;;
466;SDS011;72290;48.808;9.222;2023-08-17T15:16:07;15.23;;;9.67;;
466;SDS011;72290;48.808;9.222;2023-08-17T15:18:33;19.03;;;10.60;;
466;SDS011;72290;48.808;9.222;2023-08-17T15:21:00;16.07;;;9.40;;
466;SDS011;72290;48.808;9.222;2023-08-17T15:23:25;16.33;;;9.70;;
466;SDS011;72290;48.808;9.222;2023-08-17T15:25:51;17.27;;;10.70;;
466;SDS011;72290;48.808;9.222;2023-08-17T15:28:17;16.53;;;11.70;;
466;SDS011;72290;48.808;9.222;2023-08-17T15:30:43;14.73;;;10.40;;
466;SDS011;72290;48.808;9.222;2023-08-17T15:33:09;11.80;;;9.00;;
466;SDS011;72290;48.808;9.222;2023-08-17T15:35:35;15.23;;;9.30;;
466;SDS011;72290;48.808;9.222;2023-08-17T15:38:01;17.40;;;9.73;;
466;SDS011;72290;48.808;9.222;2023-08-17T15:40:27;14.40;;;10.10;;
466;SDS011;72290;48.808;9.222;2023-08-17T15:42:53;18.80;;;11.13;;
466;SDS011;72290;48.808;9.222;2023-08-17T15:45:19;12.70;;;9.53;;
466;SDS011;72290;48.808;9.222;2023-08-17T15:47:46;14.73;;;9.57;;
466;SDS011;72290;48.808;9.222;2023-08-17T15:50:12;12.93;;;9.50;;
466;SDS011;72290;48.808;9.222;2023-08-17T15:52:38;14.50;;;10.30;;
466;SDS011;72290;48.808;9.222;2023-08-17T15:55:04;10.37;;;8.90;;
466;SDS011;72290;48.808;9.222;2023-08-17T15:57:30;15.57;;;10.37;;
466;SDS011;72290;48.808;9.222;2023-08-17T15:59:56;15.37;;;11.33;;
466;SDS011;72290;48.808;9.222;2023-08-17T16:02:22;20.07;;;11.00;;
466;SDS011;72290;48.808;9.222;2023-08-17T16:04:48;16.67;;;10.53;;
466;SDS011;72290;48.808;9.222;2023-08-17T16:07:14;13.30;;;8.90;;
466;SDS011;72290;48.808;9.222;2023-08-17T16:09:40;13.40;;;9.60;;
466;SDS011;72290;48.808;9.222;2023-08-17T16:12:06;16.40;;;11.37;;
466;SDS011;72290;48.808;9.222;2023-08-17T16:14:33;17.00;;;9.37;;
466;SDS011;72290;48.808;9.222;2023-08-17T16:16:59;16.20;;;10.90;;
466;SDS011;72290;48.808;9.222;2023-08-17T16:19:25;15.93;;;10.90;;
466;SDS011;72290;48.808;9.222;2023-08-17T16:21:51;14.73;;;10.83;;
466;SDS011;72290;48.808;9.222;2023-08-17T16:24:17;13.00;;;10.73;;
466;SDS011;72290;48.808;9.222;2023-08-17T16:26:43;17.53;;;10.13;;
466;SDS011;72290;48.808;9.222;2023-08-17T16:29:09;13.37;;;9.47;;
466;SDS011;72290;48.808;9.222;2023-08-17T16:31:35;14.10;;;9.70;;
466;SDS011;72290;48.808;9.222;2023-08-17T16:34:01;18.53;;;10.80;;
466;SDS011;72290;48.808;9.222;2023-08-17T16:36:27;14.63;;;10.17;;
466;SDS011;72290;48.808;9.222;2023-08-17T16:38:53;13.70;;;9.70;;
466;SDS011;72290;48.808;9.222;2023-08-17T16:41:19;13.70;;;10.70;;
466;SDS011;72290;48.808;9.222;2023-08-17T16:43:46;15.10;;;9.60;;
466;SDS011;72290;48.808;9.222;2023-08-17T16:46:12;12.30;;;11.07;;
466;SDS011;72290;48.808;9.222;2023-08-17T16:48:38;13.70;;;9.73;;
466;SDS011;72290;48.808;9.222;2023-08-17T16:51:04;16.87;;;9.27;;
466;SDS011;72290;48.808;9.222;2023-08-17T16:53:30;13.87;;;10.93;;
466;SDS011;72290;48.808;9.222;2023-08-17T16:55:57;13.60;;;10.67;;
466;SDS011;72290;48.808;9.222;2023-08-17T16:58:23;13.00;;;11.27;;
466;SDS011;72290;48.808;9.222;2023-08-17T17:00:49;18.60;;;12.33;;
466;SDS011;72290;48.808;9.222;2023-08-17T17:03:15;15.30;;;10.20;;
466;SDS011;72290;48.808;9.222;2023-08-17T17:05:41;14.00;;;10.87;;
466;SDS011;72290;48.808;9.222;2023-08-17T17:08:07;19.20;;;12.23;;
466;SDS011;72290;48.808;9.222;2023-08-17T17:10:33;16.23;;;10.87;;
466;SDS011;72290;48.808;9.222;2023-08-17T17:12:59;14.07;;;10.37;;
466;SDS011;72290;48.808;9.222;2023-08-17T17:15:25;16.17;;;10.20;;
466;SDS011;72290;48.808;9.222;2023-08-17T17:17:51;14.23;;;9.97;;
466;SDS011;72290;48.808;9.222;2023-08-17T17:20:17;13.60;;;9.20;;
466;SDS011;72290;48.808;9.222;2023-08-17T17:22:43;17.60;;;11.00;;
466;SDS011;72290;48.808;9.222;2023-08-17T17:25:09;13.80;;;10.10;;
466;SDS011;72290;48.808;9.222;2023-08-17T17:27:35;15.47;;;11.00;;
466;SDS011;72290;48.808;9.222;2023-08-17T17:30:01;15.43;;;11.53;;
466;SDS011;72290;48.808;9.222;2023-08-17T17:32:27;13.60;;;9.13;;
466;SDS011;72290;48.808;9.222;2023-08-17T17:34:53;16.77;;;11.60;;
466;SDS011;72290;48.808;9.222;2023-08-17T17:37:19;14.80;;;11.40;;
466;SDS011;72290;48.808;9.222;2023-08-17T17:39:45;16.40;;;11.27;;
466;SDS011;72290;48.808;9.222;2023-08-17T17:42:11;17.40;;;11.47;;
466;SDS011;72290;48.808;9.222;2023-08-17T17:44:37;19.60;;;11.10;;
466;SDS011;72290;48.808;9.222;2023-08-17T17:47:03;15.30;;;11.20;;
466;SDS011;72290;48.808;9.222;2023-08-17T17:49:29;19.00;;;11.90;;
466;SDS011;72290;48.808;9.222;2023-08-17T17:51:55;15.40;;;11.17;;
466;SDS011;72290;48.808;9.222;2023-08-17T17:54:21;15.63;;;11.20;;
466;SDS011;72290;48.808;9.222;2023-08-17T17:56:47;15.43;;;11.10;;
466;SDS011;72290;48.808;9.222;2023-08-17T17:59:14;15.50;;;10.87;;
466;SDS011;72290;48.808;9.222;2023-08-17T18:01:40;20.80;;;11.20;;
466;SDS011;72290;48.808;9.222;2023-08-17T18:04:06;16.93;;;11.57;;
466;SDS011;72290;48.808;9.222;2023-08-17T18:06:32;15.40;;;11.60;;
466;SDS011;72290;48.808;9.222;2023-08-17T18:08:59;16.70;;;11.33;;
466;SDS011;72290;48.808;9.222;2023-08-17T18:11:25;16.67;;;12.13;;
466;SDS011;72290;48.808;9.222;2023-08-17T18:13:51;14.03;;;10.90;;
466;SDS011;72290;48.808;9.222;2023-08-17T18:16:17;18.20;;;11.53;;
466;SDS011;72290;48.808;9.222;2023-08-17T18:18:43;18.03;;;12.80;;
466;SDS011;72290;48.808;9.222;2023-08-17T18:21:09;18.17;;;13.37;;
466;SDS011;72290;48.808;9.222;2023-08-17T18:23:35;18.40;;;11.30;;
466;SDS011;72290;48.808;9.222;2023-08-17T18:26:01;17.47;;;11.70;;
466;SDS011;72290;48.808;9.222;2023-08-17T18:28:27;18.87;;;12.33;;
466;SDS011;72290;48.808;9.222;2023-08-17T18:30:53;15.73;;;11.20;;
466;SDS011;72290;48.808;9.222;2023-08-17T18:33:19;19.83;;;12.70;;
466;SDS011;72290;48.808;9.222;2023-08-17T18:35:47;18.00;;;11.33;;
466;SDS011;72290;48.808;9.222;2023-08-17T18:38:13;18.60;;;11.60;;
466;SDS011;72290;48.808;9.222;2023-08-17T18:40:40;20.20;;;12.80;;
466;SDS011;72290;48.808;9.222;2023-08-17T18:43:06;23.60;;;13.30;;
466;SDS011;72290;48.808;9.222;2023-08-17T18:45:32;23.27;;;14.50;;
466;SDS011;72290;48.808;9.222;2023-08-17T18:47:58;26.47;;;14.33;;
466;SDS011;72290;48.808;9.222;2023-08-17T18:50:23;21.67;;;12.57;;
466;SDS011;72290;48.808;9.222;2023-08-17T18:52:52;17.83;;;12.93;;
466;SDS011;72290;48.808;9.222;2023-08-17T18:55:18;18.73;;;13.20;;
466;SDS011;72290;48.808;9.222;2023-08-17T18:57:45;20.27;;;14.23;;
466;SDS011;72290;48.808;9.222;2023-08-17T19:00:11;18.30;;;12.93;;
466;SDS011;72290;48.808;9.222;2023-08-17T19:02:38;18.23;;;12.47;;
466;SDS011;72290;48.808;9.222;2023-08-17T19:05:08;22.23;;;11.90;;
466;SDS011;72290;48.808;9.222;2023-08-17T19:07:34;19.80;;;13.80;;
466;SDS011;72290;48.808;9.222;2023-08-17T19:10:01;23.30;;;14.10;;
466;SDS011;72290;48.808;9.222;2023-08-17T19:12:26;22.50;;;14.37;;
466;SDS011;72290;48.808;9.222;2023-08-17T19:14:52;18.80;;;13.03;;
466;SDS011;72290;48.808;9.222;2023-08-17T19:17:18;17.80;;;13.07;;
466;SDS011;72290;48.808;9.222;2023-08-17T19:19:45;18.07;;;12.03;;
466;SDS011;72290;48.808;9.222;2023-08-17T19:22:11;19.97;;;12.80;;
466;SDS011;72290;48.808;9.222;2023-08-17T19:24:37;19.50;;;12.63;;
466;SDS011;72290;48.808;9.222;2023-08-17T19:27:03;21.00;;;12.60;;
466;SDS011;72290;48.808;9.222;2023-08-17T19:29:29;24.10;;;14.50;;
466;SDS011;72290;48.808;9.222;2023-08-17T19:31:55;19.60;;;14.33;;
466;SDS011;72290;48.808;9.222;2023-08-17T19:34:21;25.77;;;14.73;;
466;SDS011;72290;48.808;9.222;2023-08-17T19:36:47;27.20;;;15.40;;
466;SDS011;72290;48.808;9.222;2023-08-17T19:39:13;19.47;;;13.97;;
466;SDS011;72290;48.808;9.222;2023-08-17T19:41:39;23.37;;;15.83;;
466;SDS011;72290;48.808;9.222;2023-08-17T19:44:06;18.07;;;13.70;;
466;SDS011;72290;48.808;9.222;2023-08-17T19:46:32;20.40;;;14.00;;
466;SDS011;72290;48.808;9.222;2023-08-17T19:48:58;24.90;;;16.37;;
466;SDS011;72290;48.808;9.222;2023-08-17T19:51:24;23.43;;;14.83;;
466;SDS011;72290;48.808;9.222;2023-08-17T19:53:50;19.17;;;13.17;;
466;SDS011;72290;48.808;9.222;2023-08-17T19:56:16;21.73;;;14.77;;
466;SDS011;72290;48.808;9.222;2023-08-17T19:58:42;21.60;;;15.70;;
466;SDS011;72290;48.808;9.222;2023-08-17T20:01:08;27.83;;;14.67;;
466;SDS011;72290;48.808;9.222;2023-08-17T20:03:35;21.50;;;15.60;;
466;SDS011;72290;48.808;9.222;2023-08-17T20:06:02;21.43;;;13.80;;
466;SDS011;72290;48.808;9.222;2023-08-17T20:08:30;25.80;;;15.50;;
466;SDS011;72290;48.808;9.222;2023-08-17T20:10:56;18.33;;;12.60;;
466;SDS011;72290;48.808;9.222;2023-08-17T20:13:22;22.67;;;13.20;;
466;SDS011;72290;48.808;9.222;2023-08-17T20:15:53;22.53;;;14.90;;
466;SDS011;72290;48.808;9.222;2023-08-17T20:18:20;21.60;;;14.07;;
466;SDS011;72290;48.808;9.222;2023-08-17T20:20:50;18.90;;;13.50;;
466;SDS011;72290;48.808;9.222;2023-08-17T20:23:16;19.00;;;14.90;;
466;SDS011;72290;48.808;9.222;2023-08-17T20:25:44;25.40;;;16.17;;
466;SDS011;72290;48.808;9.222;2023-08-17T20:28:12;17.50;;;13.40;;
466;SDS011;72290;48.808;9.222;2023-08-17T20:30:39;21.37;;;13.93;;
466;SDS011;72290;48.808;9.222;2023-08-17T20:33:06;21.37;;;14.97;;
466;SDS011;72290;48.808;9.222;2023-08-17T20:35:32;25.00;;;13.97;;
466;SDS011;72290;48.808;9.222;2023-08-17T20:37:58;23.37;;;12.93;;
466;SDS011;72290;48.808;9.222;2023-08-17T20:40:24;19.73;;;13.97;;
466;SDS011;72290;48.808;9.222;2023-08-17T20:42:50;20.77;;;14.03;;
466;SDS011;72290;48.808;9.222;2023-08-17T20:45:16;21.57;;;13.23;;
466;SDS011;72290;48.808;9.222;2023-08-17T20:47:42;22.77;;;13.20;;
466;SDS011;72290;48.808;9.222;2023-08-17T20:50:08;26.83;;;15.50;;
466;SDS011;72290;48.808;9.222;2023-08-17T20:52:37;19.03;;;13.17;;
466;SDS011;72290;48.808;9.222;2023-08-17T20:55:03;21.70;;;13.60;;
466;SDS011;72290;48.808;9.222;2023-08-17T20:57:29;22.23;;;13.73;;
466;SDS011;72290;48.808;9.222;2023-08-17T20:59:55;24.13;;;13.17;;
466;SDS011;72290;48.808;9.222;2023-08-17T21:02:21;20.00;;;13.53;;
466;SDS011;72290;48.808;9.222;2023-08-17T21:04:47;19.50;;;13.87;;
466;SDS011;72290;48.808;9.222;2023-08-17T21:07:13;15.20;;;12.50;;
466;SDS011;72290;48.808;9.222;2023-08-17T21:09:39;19.97;;;13.77;;
466;SDS011;72290;48.808;9.222;2023-08-17T21:12:05;19.80;;;13.77;;
466;SDS011;72290;48.808;9.222;2023-08-17T21:14:31;23.23;;;13.03;;
466;SDS011;72290;48.808;9.222;2023-08-17T21:16:57;20.30;;;13.03;;
466;SDS011;72290;48.808;9.222;2023-08-17T21:19:23;22.20;;;14.40;;
466;SDS011;72290;48.808;9.222;2023-08-17T21:21:49;20.10;;;14.17;;
466;SDS011;72290;48.808;9.222;2023-08-17T21:24:15;21.53;;;13.90;;
466;SDS011;72290;48.808;9.222;2023-08-17T21:26:41;20.67;;;13.73;;
466;SDS011;72290;48.808;9.222;2023-08-17T21:29:07;20.27;;;13.13;;
466;SDS011;72290;48.808;9.222;2023-08-17T21:31:33;17.73;;;12.73;;
466;SDS011;72290;48.808;9.222;2023-08-17T21:33:59;18.53;;;11.63;;
466;SDS011;72290;48.808;9.222;2023-08-17T21:36:25;19.97;;;13.10;;
466;SDS011;72290;48.808;9.222;2023-08-17T21:38:51;24.30;;;12.97;;
466;SDS011;72290;48.808;9.222;2023-08-17T21:41:18;19.50;;;13.40;;
466;SDS011;72290;48.808;9.222;2023-08-17T21:43:43;16.60;;;11.97;;
466;SDS011;72290;48.808;9.222;2023-08-17T21:46:09;18.50;;;11.53;;
466;SDS011;72290;48.808;9.222;2023-08-17T21:48:35;17.83;;;11.97;;
466;SDS011;72290;48.808;9.222;2023-08-17T21:51:01;14.50;;;11.80;;
466;SDS011;72290;48.808;9.222;2023-08-17T21:53:28;13.23;;;10.10;;
466;SDS011;72290;48.808;9.222;2023-08-17T21:55:54;20.20;;;11.83;;
466;SDS011;72290;48.808;9.222;2023-08-17T21:58:20;15.03;;;10.27;;
